KFKN/FKN METAR and TAF weather

Enter ICAO airport designator
Station Type Date Time Source
KFKN METAR 2021/05/13 00:35 UTC NOAA

KFKN 130035Z AUTO 00000KT 10SM CLR 09/09 A3024 RMK AO2 T00900086


Station Type Date Time Source
KFKN Decoded METAR 2021/05/13 00:35 UTC NOAA

Franklin / J B Rose, VA, United States (KFKN) 36-42N 076-54W
May 12, 2021 - 08:35 PM EDT / 2021.05.13 0035 UTC
Wind: Calm:0
Visibility: 10 mile(s):0
Sky conditions: clear
Temperature: 48.2 F (9.0 C)
Dew Point: 47.5 F (8.6 C)
Relative Humidity: 97%
Pressure (altimeter): 30.24 in. Hg (1024 hPa)
ob: KFKN 130035Z AUTO 00000KT 10SM CLR 09/09 A3024 RMK AO2 T00900086
cycle: 0

Station Type Date Time Source
KFKN TAF UTC NOAA

Error!

Example: see airport list